Main page
METAR-TAF:

METAR-TAF

Airports :

Kunming, China

Kunming Changshui International Airport

latitude: 25-01N, longitude: 102-41E, elevation: 1892 m

Current weather observation

The report was made 35 minutes ago, at 16:00 UTC
Wind 2 kt from the North/Northeast
Temperature 15°C
Humidity 100%
Pressure 1025 hPa
Visibility: 6000 m
Few clouds at a height of 500 ft
Broken clouds at a height of 4300 ft
light rain showers

METAR: ZPPP 221600Z 02001MPS 6000 -SHRA FEW005 BKN043 15/15 Q1025 NOSIG

Time: 00:35 (16:35 UTC)

Forecast

The report was made 9 hours and 29 minutes ago, at 07:06 UTC
Forecast valid from 22 at 12 UTC to 23 at 12 UTC
Wind 8 kt from the East/Northeast
Visibility: 4000 m
Scattered clouds at a height of 2000 ft
Broken clouds at a height of 4000 ft
light rain showers, mist

TAF: ZPPP 220706Z 2212/2312 06004MPS 4000 -SHRA BR SCT020 BKN040 TX20/2308Z TN14/2223Z

Weather observations and forecasts of more than 4000 airports (METAR and TAF reports).

The available stations are represented by yellow and red dots on the map.

Hover mouse over dot to see the name of the station.

Then click to see weather observations and forecasts.

To change the map : click on the green buttons with a black cross to zoom in, on the green button with a dash to zoom out, or on the green arrows for adjacent maps.


METAR-TAF: